Esquel, Argentina
Current Conditions -  °F | °C
As of 9:00 PM on Monday 20 Oct 2014 (Local Time) from SAVE Reporting Station
Scattered Clouds Scattered Clouds  
Wind Chill: 52°   Ceiling: Unl
Heat Index: 52°   Visibility: 6mi
Dew Point: 39°   Wind: 12mph
Humidity: 62%   Direction: 270°W
Pressure: 29.8"   Gusts: NA
Location:  42.91°S, 71.32°W
Report Text: SAVE 210000Z 27010KT 9999 SCT030 11/04 Q1009
Loading
Personal Weather Stations






























Interactive Weather Map
Tropical Storm Tracking
New forecast layout! Learn more

10-Day Weather Forecast

Advertisements
Track Severe Weather on mobile